Thunderstorms From: 15-12-2017 06:00 Until: 16-12-2017 06:00 warning for: Thunderstorms Level: Yellow info button

Although rather usual in this region, locally or potentially dangerous phenomena are expected. (such as local winds, summer thunderstorms, rising streams or high waves) Be aware and pay attention to the latest weather updates, especially if you carry out activities exposed to weather or close to a stream or shoreline. 


Meteo18 Weather Cam more information Meteo18 Weather Cam


warning for Thunderstorms more information blitzortung!


Rain radar more information rain snow radar


Visit our other weather sites:

Template documentation
and downloads

And another site



Weather Underground History page Text

Daily Summary for May 27, 2017 Units:  Metric    English   Both
« Previous Day
Next Day »
Daily Weekly Monthly Yearly Custom
  High: Low: Average:
Temperature: 30.9 °C 16.2 °C 23.8 °C
Dew Point: 20.3 °C 14.2 °C 16.7 °C
Humidity: 90 % 37 % 67 %
Wind Speed: 17.7 km/h 0.0 km/h 2.9 km/h
Wind Gust: 20.9 km/h - -
Wind:- - South
Pressure: 1018.5 hPa 1014.8 hPa -
Precipitation: 0.0 mm    
Historical Graphs
 
 
Tabular Data for May 27, 2017
Time Temperature Dew Point Pressure Wind Wind Speed Wind Gust Humidity Rainfall Rate (Hourly)
00:02 19.4 °C 15.7 °C 1014.8 hPa WNW 1.6 km/h 3.2 km/h 79 % 0.0 mm
00:07 19.4 °C 15.7 °C 1015.1 hPa WNW 3.2 km/h 3.2 km/h 79 % 0.0 mm
00:12 19.4 °C 15.7 °C 1014.8 hPa Calm   3.2 km/h 79 % 0.0 mm
00:17 19.5 °C 15.6 °C 1014.8 hPa Calm   3.2 km/h 78 % 0.0 mm
00:22 19.6 °C 15.7 °C 1014.8 hPa Calm   3.2 km/h 78 % 0.0 mm
00:32 19.3 °C 15.6 °C 1014.8 hPa Calm   3.2 km/h 79 % 0.0 mm
00:42 19.0 °C 15.7 °C 1015.1 hPa WNW 3.2 km/h 3.2 km/h 81 % 0.0 mm
00:52 18.6 °C 15.5 °C 1015.1 hPa WNW 1.6 km/h 3.2 km/h 82 % 0.0 mm
00:57 18.9 °C 15.6 °C 1015.1 hPa WNW 3.2 km/h 3.2 km/h 81 % 0.0 mm
01:02 19.1 °C 15.8 °C 1015.1 hPa Calm   3.2 km/h 81 % 0.0 mm
01:12 18.7 °C 15.8 °C 1015.1 hPa Calm   3.2 km/h 83 % 0.0 mm
01:17 19.0 °C 15.9 °C 1015.1 hPa Calm   3.2 km/h 82 % 0.0 mm
01:22 19.3 °C 15.8 °C 1015.1 hPa NNW 3.2 km/h 3.2 km/h 80 % 0.0 mm
01:32 18.8 °C 15.5 °C 1015.5 hPa WNW 3.2 km/h 3.2 km/h 81 % 0.0 mm
01:37 18.6 °C 15.5 °C 1015.5 hPa WNW 4.8 km/h 4.8 km/h 82 % 0.0 mm
01:42 18.4 °C 15.5 °C 1015.5 hPa WNW 1.6 km/h 4.8 km/h 83 % 0.0 mm
01:47 18.3 °C 15.4 °C 1015.5 hPa WNW 3.2 km/h 4.8 km/h 83 % 0.0 mm
01:52 18.2 °C 15.3 °C 1015.5 hPa WNW 3.2 km/h 4.8 km/h 83 % 0.0 mm
01:57 18.4 °C 15.6 °C 1015.5 hPa Calm   4.8 km/h 84 % 0.0 mm
02:02 18.6 °C 15.7 °C 1015.5 hPa Calm   4.8 km/h 83 % 0.0 mm
02:07 18.4 °C 15.3 °C 1015.5 hPa WNW 3.2 km/h 3.2 km/h 82 % 0.0 mm
02:12 18.1 °C 15.4 °C 1015.8 hPa West 1.6 km/h 3.2 km/h 84 % 0.0 mm
02:22 18.1 °C 15.4 °C 1015.8 hPa WNW 3.2 km/h 3.2 km/h 84 % 0.0 mm
02:32 17.8 °C 15.2 °C 1015.8 hPa WNW 1.6 km/h 3.2 km/h 85 % 0.0 mm
02:37 17.7 °C 15.1 °C 1015.8 hPa Calm   3.2 km/h 85 % 0.0 mm
02:42 17.8 °C 15.4 °C 1016.1 hPa Calm   3.2 km/h 86 % 0.0 mm
02:52 17.8 °C 15.2 °C 1016.1 hPa Calm   3.2 km/h 85 % 0.0 mm
03:02 17.9 °C 15.5 °C 1016.1 hPa Calm     86 % 0.0 mm
03:12 18.8 °C 15.9 °C 1016.1 hPa Calm     83 % 0.0 mm
03:17 19.2 °C 15.9 °C 1016.1 hPa WSW 4.8 km/h 4.8 km/h 81 % 0.0 mm
03:22 19.6 °C 16.1 °C 1016.1 hPa SW 4.8 km/h 4.8 km/h 80 % 0.0 mm
03:32 19.8 °C 16.1 °C 1016.5 hPa Calm   8.0 km/h 79 % 0.0 mm
03:52 18.6 °C 15.7 °C 1016.5 hPa Calm   3.2 km/h 83 % 0.0 mm
03:57 18.4 °C 15.5 °C 1016.5 hPa Calm   1.6 km/h 83 % 0.0 mm
04:02 18.3 °C 15.5 °C 1016.5 hPa Calm   1.6 km/h 84 % 0.0 mm
04:12 18.0 °C 15.4 °C 1016.5 hPa East 1.6 km/h   85 % 0.0 mm
04:17 17.9 °C 15.5 °C 1016.1 hPa East 1.6 km/h 3.2 km/h 86 % 0.0 mm
04:22 18.1 °C 15.7 °C 1016.1 hPa ENE 1.6 km/h 3.2 km/h 86 % 0.0 mm
04:32 17.8 °C 15.2 °C 1016.5 hPa Calm   3.2 km/h 85 % 0.0 mm
04:42 17.3 °C 15.1 °C 1016.1 hPa Calm   3.2 km/h 87 % 0.0 mm
04:47 17.0 °C 15.0 °C 1016.5 hPa Calm   1.6 km/h 88 % 0.0 mm
04:52 17.0 °C 15.0 °C 1016.5 hPa Calm   1.6 km/h 88 % 0.0 mm
04:57 17.0 °C 15.2 °C 1016.1 hPa Calm   1.6 km/h 89 % 0.0 mm
05:02 17.2 °C 15.4 °C 1016.5 hPa Calm   1.6 km/h 89 % 0.0 mm
05:12 16.8 °C 14.8 °C 1016.5 hPa ENE 3.2 km/h 4.8 km/h 88 % 0.0 mm
05:22 16.2 °C 14.6 °C 1016.5 hPa ENE 6.4 km/h 8.0 km/h 90 % 0.0 mm
05:32 17.4 °C 15.7 °C 1016.5 hPa Calm   8.0 km/h 90 % 0.0 mm
05:37 18.1 °C 15.7 °C 1016.5 hPa SSW 4.8 km/h 8.0 km/h 86 % 0.0 mm
05:42 18.7 °C 15.6 °C 1016.5 hPa SW 3.2 km/h 8.0 km/h 82 % 0.0 mm
05:52 19.0 °C 15.7 °C 1016.1 hPa SW 3.2 km/h 14.5 km/h 81 % 0.0 mm
06:02 19.0 °C 15.5 °C 1016.1 hPa SSW 3.2 km/h 9.7 km/h 80 % 0.0 mm
06:12 18.3 °C 15.0 °C 1016.5 hPa Calm   8.0 km/h 81 % 0.0 mm
06:17 17.8 °C 14.9 °C 1016.5 hPa ESE 1.6 km/h 8.0 km/h 83 % 0.0 mm
06:22 17.3 °C 14.8 °C 1016.5 hPa Calm   3.2 km/h 85 % 0.0 mm
06:32 17.2 °C 15.0 °C 1016.8 hPa SE 1.6 km/h 3.2 km/h 87 % 0.0 mm
06:37 17.2 °C 15.0 °C 1016.8 hPa SSE 1.6 km/h 4.8 km/h 87 % 0.0 mm
06:42 17.2 °C 15.0 °C 1016.8 hPa East 3.2 km/h 4.8 km/h 87 % 0.0 mm
06:52 17.7 °C 15.3 °C 1016.8 hPa SE 3.2 km/h 4.8 km/h 86 % 0.0 mm
07:02 17.8 °C 15.4 °C 1016.5 hPa Calm   4.8 km/h 86 % 0.0 mm
07:07 17.9 °C 15.5 °C 1016.5 hPa South 1.6 km/h 4.8 km/h 86 % 0.0 mm
07:17 18.4 °C 16.0 °C 1016.5 hPa Calm   4.8 km/h 86 % 0.0 mm
07:22 18.7 °C 15.9 °C 1016.5 hPa Calm   3.2 km/h 84 % 0.0 mm
07:32 18.9 °C 16.1 °C 1016.8 hPa Calm   6.4 km/h 84 % 0.0 mm
07:42 19.2 °C 16.2 °C 1017.2 hPa SSE 3.2 km/h 6.4 km/h 83 % 0.0 mm
07:47 19.3 °C 16.3 °C 1017.2 hPa SW 1.6 km/h 6.4 km/h 83 % 0.0 mm
07:52 19.4 °C 16.4 °C 1017.2 hPa SSW 1.6 km/h 6.4 km/h 83 % 0.0 mm
08:02 19.6 °C 16.4 °C 1017.2 hPa Calm   9.7 km/h 82 % 0.0 mm
08:12 20.1 °C 16.7 °C 1017.5 hPa Calm   6.4 km/h 81 % 0.0 mm
08:17 20.1 °C 16.5 °C 1017.5 hPa SSW 3.2 km/h 6.4 km/h 80 % 0.0 mm
08:22 20.1 °C 16.7 °C 1017.5 hPa SE 1.6 km/h 9.7 km/h 81 % 0.0 mm
08:32 20.5 °C 16.9 °C 1017.8 hPa SW 9.7 km/h 9.7 km/h 80 % 0.0 mm
08:42 20.8 °C 17.0 °C 1017.5 hPa SSW 3.2 km/h 12.9 km/h 79 % 0.0 mm
08:52 21.2 °C 17.0 °C 1017.8 hPa SSW 3.2 km/h 12.9 km/h 77 % 0.0 mm
08:57 21.4 °C 17.0 °C 1017.8 hPa SW 3.2 km/h 12.9 km/h 76 % 0.0 mm
09:12 21.8 °C 16.7 °C 1017.8 hPa SSW 9.7 km/h 14.5 km/h 73 % 0.0 mm
09:22 22.1 °C 17.0 °C 1017.8 hPa WSW 6.4 km/h 14.5 km/h 73 % 0.0 mm
09:32 22.3 °C 17.0 °C 1017.8 hPa SW 12.9 km/h 14.5 km/h 72 % 0.0 mm
09:42 22.4 °C 16.7 °C 1017.8 hPa SW 8.0 km/h 14.5 km/h 70 % 0.0 mm
09:47 22.5 °C 16.8 °C 1017.8 hPa SSW 3.2 km/h 14.5 km/h 70 % 0.0 mm
09:52 22.8 °C 17.0 °C 1017.8 hPa SW 11.3 km/h 16.1 km/h 70 % 0.0 mm
10:02 23.1 °C 17.6 °C 1017.8 hPa SSW 8.0 km/h 12.9 km/h 71 % 0.0 mm
10:07 23.3 °C 17.5 °C 1017.8 hPa WSW 9.7 km/h 12.9 km/h 70 % 0.0 mm
10:12 23.4 °C 17.2 °C 1017.8 hPa WSW 8.0 km/h 11.3 km/h 68 % 0.0 mm
10:17 23.4 °C 17.2 °C 1017.8 hPa SW 8.0 km/h 11.3 km/h 68 % 0.0 mm
10:22 23.6 °C 17.1 °C 1018.2 hPa South 3.2 km/h 12.9 km/h 67 % 0.0 mm
10:32 23.9 °C 16.9 °C 1018.2 hPa SW 14.5 km/h 14.5 km/h 65 % 0.0 mm
10:37 23.9 °C 16.9 °C 1018.2 hPa WSW 8.0 km/h 14.5 km/h 65 % 0.0 mm
10:42 24.0 °C 17.0 °C 1018.2 hPa SW 8.0 km/h 19.3 km/h 65 % 0.0 mm
10:47 24.2 °C 17.2 °C 1018.2 hPa SE 8.0 km/h 19.3 km/h 65 % 0.0 mm
10:52 24.4 °C 16.9 °C 1018.2 hPa SW 9.7 km/h 12.9 km/h 63 % 0.0 mm
10:57 24.6 °C 17.3 °C 1018.2 hPa South 6.4 km/h 12.9 km/h 64 % 0.0 mm
11:02 24.7 °C 17.4 °C 1018.2 hPa WSW 8.0 km/h 12.9 km/h 64 % 0.0 mm
11:12 24.8 °C 17.5 °C 1018.2 hPa WSW 6.4 km/h 12.9 km/h 64 % 0.0 mm
11:17 25.1 °C 17.3 °C 1018.2 hPa SW 4.8 km/h 12.9 km/h 62 % 0.0 mm
11:22 25.3 °C 17.2 °C 1018.2 hPa SSW 4.8 km/h 12.9 km/h 61 % 0.0 mm
11:32 25.3 °C 17.2 °C 1018.2 hPa WSW 11.3 km/h 12.9 km/h 61 % 0.0 mm
11:42 25.7 °C 17.1 °C 1018.2 hPa WSW 4.8 km/h 12.9 km/h 59 % 0.0 mm
11:52 25.9 °C 17.3 °C 1018.2 hPa SSW 17.7 km/h 17.7 km/h 59 % 0.0 mm
11:57 26.0 °C 17.1 °C 1018.5 hPa SSW 8.0 km/h 11.3 km/h 58 % 0.0 mm
12:02 26.2 °C 17.6 °C 1018.5 hPa SW 14.5 km/h 20.9 km/h 59 % 0.0 mm
12:12 26.3 °C 17.4 °C 1018.5 hPa South 1.6 km/h 19.3 km/h 58 % 0.0 mm
12:17 26.7 °C 17.5 °C 1018.5 hPa SSW 3.2 km/h 19.3 km/h 57 % 0.0 mm
12:22 26.6 °C 17.4 °C 1018.5 hPa SW 8.0 km/h 14.5 km/h 57 % 0.0 mm
12:32 26.4 °C 17.2 °C 1018.5 hPa WSW 12.9 km/h 14.5 km/h 57 % 0.0 mm
12:37 26.4 °C 17.5 °C 1018.5 hPa South 8.0 km/h 16.1 km/h 58 % 0.0 mm
12:42 26.7 °C 17.5 °C 1018.5 hPa SSE 1.6 km/h 16.1 km/h 57 % 0.0 mm
12:52 26.9 °C 17.1 °C 1018.5 hPa SSE 3.2 km/h 14.5 km/h 55 % 0.0 mm
13:02 27.3 °C 17.5 °C 1018.2 hPa West 6.4 km/h 14.5 km/h 55 % 0.0 mm
13:12 27.5 °C 17.7 °C 1018.2 hPa SW 9.7 km/h 14.5 km/h 55 % 0.0 mm
13:17 27.4 °C 17.8 °C 1018.2 hPa South 8.0 km/h 14.5 km/h 56 % 0.0 mm
13:22 27.7 °C 17.8 °C 1018.2 hPa SSW 3.2 km/h 17.7 km/h 55 % 0.0 mm
13:32 27.7 °C 17.2 °C 1018.2 hPa SE 1.6 km/h 17.7 km/h 53 % 0.0 mm
13:37 27.9 °C 17.1 °C 1018.2 hPa South 1.6 km/h 17.7 km/h 52 % 0.0 mm
13:42 28.1 °C 17.3 °C 1018.2 hPa ESE 9.7 km/h 12.9 km/h 52 % 0.0 mm
13:52 28.2 °C 17.7 °C 1018.2 hPa SE 4.8 km/h 14.5 km/h 53 % 0.0 mm
14:02 28.4 °C 17.3 °C 1017.8 hPa SSW 3.2 km/h 14.5 km/h 51 % 0.0 mm
14:12 28.7 °C 17.6 °C 1017.8 hPa South 1.6 km/h 12.9 km/h 51 % 0.0 mm
14:17 29.0 °C 17.8 °C 1017.8 hPa SW 1.6 km/h 12.9 km/h 51 % 0.0 mm
14:22 29.0 °C 17.5 °C 1017.8 hPa SE 3.2 km/h 11.3 km/h 50 % 0.0 mm
14:32 28.8 °C 17.7 °C 1017.8 hPa SW 6.4 km/h 14.5 km/h 51 % 0.0 mm
14:42 28.8 °C 17.0 °C 1017.5 hPa SW 4.8 km/h 14.5 km/h 49 % 0.0 mm
14:47 29.1 °C 17.3 °C 1017.5 hPa SSE 8.0 km/h 14.5 km/h 49 % 0.0 mm
14:52 28.8 °C 17.0 °C 1017.5 hPa South 3.2 km/h 9.7 km/h 49 % 0.0 mm
14:57 28.8 °C 17.0 °C 1017.5 hPa East 4.8 km/h 12.9 km/h 49 % 0.0 mm
15:02 29.1 °C 17.3 °C 1017.5 hPa SSE 3.2 km/h 12.9 km/h 49 % 0.0 mm
15:12 29.4 °C 17.9 °C 1017.5 hPa ENE 4.8 km/h 12.9 km/h 50 % 0.0 mm
15:17 29.3 °C 17.8 °C 1017.5 hPa East 8.0 km/h 9.7 km/h 50 % 0.0 mm
15:22 28.9 °C 17.4 °C 1017.5 hPa East 3.2 km/h 9.7 km/h 50 % 0.0 mm
15:32 29.2 °C 17.4 °C 1017.5 hPa Calm   9.7 km/h 49 % 0.0 mm
15:42 29.4 °C 17.2 °C 1017.5 hPa East 3.2 km/h 9.7 km/h 48 % 0.0 mm
15:47 29.5 °C 16.7 °C 1017.5 hPa ESE 4.8 km/h 9.7 km/h 46 % 0.0 mm
15:52 29.5 °C 16.3 °C 1017.5 hPa Calm   8.0 km/h 45 % 0.0 mm
16:02 29.6 °C 17.1 °C 1017.5 hPa ENE 1.6 km/h 12.9 km/h 47 % 0.0 mm
16:12 30.0 °C 17.1 °C 1017.5 hPa ENE 3.2 km/h 12.9 km/h 46 % 0.0 mm
16:17 29.9 °C 16.0 °C 1017.5 hPa East 8.0 km/h 8.0 km/h 43 % 0.0 mm
16:27 30.0 °C 14.9 °C 1017.2 hPa SW 1.6 km/h 12.9 km/h 40 % 0.0 mm
16:32 30.5 °C 16.5 °C 1017.2 hPa South 1.6 km/h 12.9 km/h 43 % 0.0 mm
16:37 30.6 °C 16.6 °C 1017.2 hPa SSE 3.2 km/h 12.9 km/h 43 % 0.0 mm
16:42 30.6 °C 17.0 °C 1017.2 hPa ENE 6.4 km/h 12.9 km/h 44 % 0.0 mm
16:47 30.7 °C 15.5 °C 1017.2 hPa SE 1.6 km/h 12.9 km/h 40 % 0.0 mm
16:52 30.7 °C 15.5 °C 1017.2 hPa ESE 1.6 km/h 12.9 km/h 40 % 0.0 mm
16:57 30.8 °C 15.2 °C 1017.2 hPa South 6.4 km/h 12.9 km/h 39 % 0.0 mm
17:02 30.9 °C 16.1 °C 1017.2 hPa East 6.4 km/h 12.9 km/h 41 % 0.0 mm
17:12 30.6 °C 15.1 °C 1017.2 hPa Calm   12.9 km/h 39 % 0.0 mm
17:17 30.8 °C 16.0 °C 1017.2 hPa East 9.7 km/h 11.3 km/h 41 % 0.0 mm
17:27 30.8 °C 14.8 °C 1017.2 hPa SSE 3.2 km/h 11.3 km/h 38 % 0.0 mm
17:32 30.6 °C 15.1 °C 1017.2 hPa ESE 3.2 km/h 11.3 km/h 39 % 0.0 mm
17:42 30.6 °C 14.2 °C 1017.2 hPa SSW 8.0 km/h 11.3 km/h 37 % 0.0 mm
17:47 30.7 °C 14.8 °C 1017.2 hPa ESE 3.2 km/h 12.9 km/h 38 % 0.0 mm
17:52 30.8 °C 15.6 °C 1017.2 hPa South 4.8 km/h 12.9 km/h 40 % 0.0 mm
17:57 30.8 °C 14.8 °C 1017.2 hPa SSE 3.2 km/h 8.0 km/h 38 % 0.0 mm
18:02 30.8 °C 15.6 °C 1017.2 hPa SSW 3.2 km/h 8.0 km/h 40 % 0.0 mm
18:12 30.5 °C 14.2 °C 1017.2 hPa SE 4.8 km/h 8.0 km/h 37 % 0.0 mm
18:17 30.4 °C 15.3 °C 1017.2 hPa Calm   8.0 km/h 40 % 0.0 mm
18:22 30.5 °C 15.4 °C 1017.2 hPa Calm   8.0 km/h 40 % 0.0 mm
18:32 30.4 °C 15.3 °C 1016.8 hPa Calm   6.4 km/h 40 % 0.0 mm
18:42 30.3 °C 15.2 °C 1016.8 hPa SSW 3.2 km/h 4.8 km/h 40 % 0.0 mm
18:47 30.2 °C 15.9 °C 1016.8 hPa Calm   4.8 km/h 42 % 0.0 mm
18:52 30.2 °C 15.5 °C 1016.8 hPa SSW 1.6 km/h 8.0 km/h 41 % 0.0 mm
19:02 29.9 °C 16.7 °C 1016.8 hPa SE 1.6 km/h 8.0 km/h 45 % 0.0 mm
19:12 30.0 °C 16.8 °C 1016.8 hPa Calm   8.0 km/h 45 % 0.0 mm
19:22 30.1 °C 16.5 °C 1016.8 hPa ESE 1.6 km/h 4.8 km/h 44 % 0.0 mm
19:27 29.9 °C 16.3 °C 1016.8 hPa Calm   3.2 km/h 44 % 0.0 mm
19:32 29.9 °C 16.3 °C 1016.8 hPa Calm   3.2 km/h 44 % 0.0 mm
19:37 29.6 °C 16.8 °C 1016.8 hPa Calm   3.2 km/h 46 % 0.0 mm
19:42 29.4 °C 18.5 °C 1016.8 hPa Calm   3.2 km/h 52 % 0.0 mm
19:47 29.3 °C 19.9 °C 1017.2 hPa Calm   3.2 km/h 57 % 0.0 mm
19:52 28.9 °C 19.5 °C 1017.2 hPa Calm   3.2 km/h 57 % 0.0 mm
19:57 28.7 °C 19.6 °C 1017.2 hPa Calm   3.2 km/h 58 % 0.0 mm
20:02 28.4 °C 19.1 °C 1017.2 hPa Calm   1.6 km/h 57 % 0.0 mm
20:12 28.1 °C 19.1 °C 1017.2 hPa Calm   1.6 km/h 58 % 0.0 mm
20:17 27.8 °C 19.3 °C 1017.2 hPa Calm     60 % 0.0 mm
20:22 27.7 °C 19.2 °C 1017.2 hPa Calm   3.2 km/h 60 % 0.0 mm
20:27 27.5 °C 19.0 °C 1017.2 hPa Calm   3.2 km/h 60 % 0.0 mm
20:32 27.3 °C 19.1 °C 1017.2 hPa Calm   3.2 km/h 61 % 0.0 mm
20:37 27.2 °C 19.5 °C 1017.2 hPa Calm   1.6 km/h 63 % 0.0 mm
20:42 27.2 °C 20.3 °C 1017.5 hPa Calm     66 % 0.0 mm
20:52 26.2 °C 19.1 °C 1017.5 hPa Calm     65 % 0.0 mm
20:57 25.9 °C 18.8 °C 1017.5 hPa Calm     65 % 0.0 mm
21:02 25.6 °C 18.5 °C 1017.5 hPa Calm     65 % 0.0 mm
21:12 25.3 °C 18.5 °C 1017.5 hPa Calm     66 % 0.0 mm
21:17 25.1 °C 18.5 °C 1017.5 hPa Calm     67 % 0.0 mm
21:27 24.6 °C 18.8 °C 1017.5 hPa Calm     70 % 0.0 mm
21:32 24.4 °C 18.8 °C 1017.5 hPa Calm     71 % 0.0 mm
21:42 24.2 °C 18.6 °C 1017.5 hPa Calm     71 % 0.0 mm
21:47 24.0 °C 18.6 °C 1017.5 hPa Calm     72 % 0.0 mm
21:52 23.9 °C 18.8 °C 1017.5 hPa Calm     73 % 0.0 mm
21:57 23.8 °C 18.9 °C 1017.5 hPa Calm     74 % 0.0 mm
22:02 23.6 °C 19.1 °C 1017.5 hPa Calm     76 % 0.0 mm
22:12 23.3 °C 19.5 °C 1017.5 hPa NNE 3.2 km/h   79 % 0.0 mm
22:22 23.2 °C 19.1 °C 1017.5 hPa Calm   4.8 km/h 78 % 0.0 mm
22:27 22.8 °C 19.2 °C 1017.5 hPa Calm   4.8 km/h 80 % 0.0 mm
22:32 22.5 °C 18.7 °C 1017.5 hPa WNW 1.6 km/h 4.8 km/h 79 % 0.0 mm
22:42 21.9 °C 18.5 °C 1017.5 hPa WNW 1.6 km/h 3.2 km/h 81 % 0.0 mm
22:52 21.9 °C 18.5 °C 1017.5 hPa North 1.6 km/h 3.2 km/h 81 % 0.0 mm
22:57 22.0 °C 18.6 °C 1017.5 hPa Calm   1.6 km/h 81 % 0.0 mm
23:02 22.2 °C 18.6 °C 1017.8 hPa NNW 1.6 km/h 1.6 km/h 80 % 0.0 mm
23:12 21.9 °C 18.3 °C 1017.5 hPa Calm   1.6 km/h 80 % 0.0 mm
23:17 21.6 °C 18.2 °C 1017.5 hPa NNE 1.6 km/h 1.6 km/h 81 % 0.0 mm
23:22 21.5 °C 18.5 °C 1017.5 hPa Calm   3.2 km/h 83 % 0.0 mm
23:32 21.1 °C 18.1 °C 1017.5 hPa Calm   3.2 km/h 83 % 0.0 mm
23:37 21.1 °C 17.9 °C 1017.8 hPa Calm   3.2 km/h 82 % 0.0 mm
23:42 20.9 °C 17.9 °C 1017.8 hPa Calm   3.2 km/h 83 % 0.0 mm
23:47 21.1 °C 17.9 °C 1017.5 hPa WNW 1.6 km/h 3.2 km/h 82 % 0.0 mm
23:52 20.7 °C 17.7 °C 1017.8 hPa WNW 1.6 km/h 1.6 km/h 83 % 0.0 mm
23:57 20.6 °C 18.0 °C 1017.5 hPa Calm   3.2 km/h 85 % 0.0 mm
Meteo18
Compliments of Weather Underground - 4 mb

Script developed by  Jim McMurry - jmcmurry@mwt.net Adapted for the template by  Wim van der Kuil - Leuven-Template.eu

You find our weather info also at:

European Weather Network

Weather Underground

Equipment we use:

Weather-station
Davis Vue

Weather-program
Meteohub

Weather-server
Raspberry PI 2 B+

Provider
1 and 1

Davis Vue

Meteohub

Raspberry PI 2 B+

1 and 1